createdAt,value
2022-09-09T00:04:40.588Z,17.70
2022-09-09T00:10:11.269Z,17.70
2022-09-09T00:15:20.499Z,17.60
2022-09-09T00:20:37.511Z,17.50
2022-09-09T00:26:07.505Z,17.50
2022-09-09T00:31:17.446Z,17.50
2022-09-09T00:36:24.327Z,17.50
2022-09-09T00:42:12.877Z,17.40
2022-09-09T00:47:33.913Z,17.40
2022-09-09T00:52:58.842Z,17.20
2022-09-09T00:58:01.343Z,17.30
2022-09-09T01:03:25.544Z,17.30
2022-09-09T01:08:29.289Z,17.40
2022-09-09T01:13:37.477Z,17.30
2022-09-09T01:18:52.350Z,17.30
2022-09-09T01:24:17.227Z,17.10
2022-09-09T01:29:46.687Z,16.90
2022-09-09T01:34:52.353Z,17.10
2022-09-09T01:39:56.171Z,17.00
2022-09-09T01:44:58.642Z,17.00
2022-09-09T01:50:02.813Z,16.70
2022-09-09T01:55:07.303Z,16.60
2022-09-09T02:00:15.681Z,16.50
2022-09-09T02:05:38.008Z,16.30
2022-09-09T02:11:02.804Z,16.30
2022-09-09T02:16:28.809Z,16.20
2022-09-09T02:21:36.070Z,16.10
2022-09-09T02:26:42.591Z,15.90
2022-09-09T02:31:50.475Z,15.90
2022-09-09T02:37:00.836Z,15.70
2022-09-09T02:42:05.549Z,15.60
2022-09-09T02:47:25.477Z,15.40
2022-09-09T02:52:38.199Z,15.30
2022-09-09T02:57:43.652Z,15.20
2022-09-09T03:02:46.651Z,15.10
2022-09-09T03:07:50.726Z,15.20
2022-09-09T03:12:56.379Z,15.50
2022-09-09T03:18:00.539Z,15.60
2022-09-09T03:23:03.552Z,15.80
2022-09-09T03:28:06.106Z,15.90
2022-09-09T03:33:08.908Z,16.00
2022-09-09T03:38:11.691Z,16.10
2022-09-09T03:43:14.263Z,16.30
2022-09-09T03:48:18.179Z,16.40
2022-09-09T03:53:23.214Z,16.50
2022-09-09T03:58:27.725Z,16.40
2022-09-09T04:03:34.702Z,16.40
2022-09-09T04:08:38.347Z,16.50
2022-09-09T04:13:41.286Z,16.50
2022-09-09T04:18:46.271Z,16.60
2022-09-09T04:23:50.774Z,16.50
2022-09-09T04:28:54.079Z,16.50
2022-09-09T04:33:56.815Z,16.40
2022-09-09T04:39:00.740Z,16.40
2022-09-09T04:44:04.013Z,16.50
2022-09-09T04:49:10.927Z,16.50
2022-09-09T04:54:18.160Z,16.40
2022-09-09T04:59:22.847Z,16.20
2022-09-09T05:04:29.865Z,16.30
2022-09-09T05:09:32.420Z,16.40
2022-09-09T05:14:38.450Z,16.30
2022-09-09T05:19:42.129Z,16.40
2022-09-09T05:24:45.223Z,16.20
2022-09-09T05:29:49.216Z,16.10
2022-09-09T05:34:52.598Z,16.00
2022-09-09T05:39:56.039Z,16.10
2022-09-09T05:44:59.184Z,16.10
2022-09-09T05:50:02.706Z,16.20
2022-09-09T05:55:05.969Z,16.10
2022-09-09T06:00:09.210Z,16.20
2022-09-09T06:05:16.262Z,16.40
2022-09-09T06:10:20.021Z,16.70
2022-09-09T06:15:22.727Z,16.90
2022-09-09T06:20:26.248Z,16.90
2022-09-09T06:25:29.619Z,17.00
2022-09-09T06:30:32.416Z,17.10
2022-09-09T06:35:34.847Z,17.10
2022-09-09T06:40:37.959Z,16.80
2022-09-09T06:45:40.488Z,16.90
2022-09-09T06:50:44.429Z,17.20
2022-09-09T06:55:47.226Z,17.20
2022-09-09T07:00:50.395Z,17.30
2022-09-09T07:05:57.594Z,17.70
2022-09-09T07:11:11.699Z,17.80
2022-09-09T07:16:18.842Z,17.90
2022-09-09T07:21:22.659Z,18.10
2022-09-09T07:26:28.268Z,18.10
2022-09-09T07:31:35.393Z,18.20
2022-09-09T07:36:39.798Z,18.30
2022-09-09T07:41:50.136Z,18.20
2022-09-09T07:46:55.341Z,18.30
2022-09-09T07:52:04.535Z,18.40
2022-09-09T07:57:08.029Z,18.60
2022-09-09T08:02:13.375Z,18.60
2022-09-09T08:07:17.439Z,18.80
2022-09-09T08:12:25.890Z,18.70
2022-09-09T08:17:28.909Z,18.50
2022-09-09T08:22:33.685Z,18.60
2022-09-09T08:27:36.156Z,18.90
2022-09-09T08:32:40.993Z,19.20
2022-09-09T08:37:51.569Z,19.40
2022-09-09T08:42:58.195Z,19.70
2022-09-09T08:48:15.457Z,19.90
2022-09-09T08:53:23.855Z,20.10
2022-09-09T08:58:30.783Z,20.30
2022-09-09T09:03:52.557Z,20.30
2022-09-09T09:09:17.461Z,20.30
2022-09-09T09:14:30.189Z,20.40
2022-09-09T09:19:42.030Z,20.30
2022-09-09T09:24:50.037Z,20.40
2022-09-09T09:30:21.513Z,20.50
2022-09-09T09:35:20.158Z,20.90
2022-09-09T09:40:24.308Z,21.30
2022-09-09T09:45:35.494Z,21.50
2022-09-09T09:50:55.705Z,21.30
2022-09-09T09:55:59.995Z,21.20
2022-09-09T10:01:02.615Z,21.30
2022-09-09T10:06:06.957Z,21.20
2022-09-09T10:11:18.433Z,21.60
2022-09-09T10:16:53.448Z,22.00
2022-09-09T10:22:21.207Z,22.10
2022-09-09T10:27:32.536Z,22.40
2022-09-09T10:32:51.999Z,22.70
2022-09-09T10:38:15.011Z,23.00
2022-09-09T10:43:36.015Z,23.10
2022-09-09T10:48:43.580Z,23.90
2022-09-09T10:54:04.782Z,23.90
2022-09-09T10:59:15.428Z,23.60
2022-09-09T11:04:26.848Z,23.80
2022-09-09T11:09:34.017Z,24.00
2022-09-09T11:15:03.035Z,23.80
2022-09-09T11:20:07.942Z,23.50
2022-09-09T11:25:38.804Z,23.60
2022-09-09T11:30:56.190Z,24.60
2022-09-09T11:36:32.106Z,25.30
2022-09-09T11:41:38.186Z,25.60
2022-09-09T11:46:42.494Z,26.30
2022-09-09T11:51:44.875Z,25.40
2022-09-09T11:56:48.043Z,24.90
2022-09-09T12:02:01.065Z,24.90
2022-09-09T12:07:22.723Z,25.70
2022-09-09T12:12:28.914Z,26.80
2022-09-09T12:17:32.948Z,27.20
2022-09-09T12:22:41.200Z,27.50
2022-09-09T12:27:58.427Z,27.40
2022-09-09T12:33:12.682Z,27.90
2022-09-09T12:38:23.871Z,28.50
2022-09-09T12:43:28.527Z,28.80
2022-09-09T12:48:43.163Z,28.80
2022-09-09T12:53:47.116Z,28.90
2022-09-09T12:58:52.589Z,27.80
2022-09-09T13:03:55.641Z,27.80
2022-09-09T13:09:00.689Z,27.30
2022-09-09T13:14:03.867Z,27.30
2022-09-09T13:19:14.643Z,28.30
2022-09-09T13:24:31.118Z,29.30
2022-09-09T13:29:34.016Z,28.10
2022-09-09T13:34:37.137Z,27.20
2022-09-09T13:39:39.672Z,28.30
2022-09-09T13:44:42.757Z,28.90
2022-09-09T13:49:46.782Z,28.10
2022-09-09T13:54:53.278Z,27.40
2022-09-09T14:00:05.180Z,27.20
2022-09-09T14:05:08.340Z,27.60
2022-09-09T14:10:11.663Z,30.20
2022-09-09T14:15:15.494Z,31.30
2022-09-09T14:20:18.671Z,31.50
2022-09-09T14:25:21.179Z,31.10
2022-09-09T14:30:23.549Z,32.10
2022-09-09T14:35:25.950Z,32.30
2022-09-09T14:40:28.439Z,31.70
2022-09-09T14:45:31.188Z,33.20
2022-09-09T14:50:35.904Z,32.70
2022-09-09T14:55:38.345Z,33.70
2022-09-09T15:00:40.819Z,34.90
2022-09-09T15:05:43.295Z,34.80
2022-09-09T15:10:46.264Z,34.30
2022-09-09T15:15:51.165Z,34.20
2022-09-09T15:20:54.170Z,34.00
2022-09-09T15:25:57.515Z,32.80
2022-09-09T15:31:07.375Z,32.10
2022-09-09T15:36:23.190Z,31.90
2022-09-09T15:41:26.556Z,30.60
2022-09-09T15:46:30.776Z,29.10
2022-09-09T15:51:49.224Z,28.20
2022-09-09T15:56:56.602Z,27.10
2022-09-09T16:02:01.075Z,26.40
2022-09-09T16:07:05.721Z,26.00
2022-09-09T16:12:10.684Z,25.60
2022-09-09T16:17:13.282Z,25.60
2022-09-09T16:22:16.665Z,25.60
2022-09-09T16:27:19.173Z,26.20
2022-09-09T16:32:21.567Z,25.90
2022-09-09T16:37:24.028Z,25.70
2022-09-09T16:42:26.677Z,25.30
2022-09-09T16:47:29.065Z,25.40
2022-09-09T16:52:31.410Z,25.10
2022-09-09T16:57:33.795Z,24.70
2022-09-09T17:02:36.220Z,24.40
2022-09-09T17:07:39.592Z,24.20
2022-09-09T17:12:42.542Z,23.90
2022-09-09T17:17:46.215Z,23.50
2022-09-09T17:22:49.968Z,23.10
2022-09-09T17:27:52.505Z,22.80
2022-09-09T17:32:54.858Z,22.40
2022-09-09T17:37:57.332Z,22.10
2022-09-09T17:43:00.450Z,21.90
2022-09-09T17:48:03.802Z,21.60
2022-09-09T17:53:06.238Z,21.40
2022-09-09T17:58:08.809Z,21.40
2022-09-09T18:03:11.256Z,21.00
2022-09-09T18:08:13.653Z,20.90
2022-09-09T18:13:16.487Z,20.80
2022-09-09T18:18:18.945Z,20.70
2022-09-09T18:23:21.311Z,20.50
2022-09-09T18:28:25.040Z,20.30
2022-09-09T18:33:27.579Z,20.30
2022-09-09T18:38:33.075Z,20.00
2022-09-09T18:43:35.885Z,20.00
2022-09-09T18:48:39.245Z,19.80
2022-09-09T18:53:42.052Z,19.60
2022-09-09T18:58:44.570Z,19.50
2022-09-09T19:03:47.800Z,19.30
2022-09-09T19:08:54.758Z,19.30
2022-09-09T19:14:02.359Z,19.10
2022-09-09T19:19:12.356Z,19.10
2022-09-09T19:24:18.801Z,19.20
2022-09-09T19:29:23.909Z,19.10
2022-09-09T19:34:26.491Z,18.90
2022-09-09T19:39:28.951Z,18.80
2022-09-09T19:44:31.351Z,18.80
2022-09-09T19:49:34.242Z,18.60
2022-09-09T19:54:36.627Z,18.50
2022-09-09T19:59:38.981Z,18.30
2022-09-09T20:04:41.898Z,18.40
2022-09-09T20:09:44.266Z,18.50
2022-09-09T20:14:46.799Z,18.50
2022-09-09T20:19:49.183Z,18.20
2022-09-09T20:24:51.639Z,18.20
2022-09-09T20:29:54.155Z,18.00
2022-09-09T20:34:56.483Z,17.90
2022-09-09T20:40:02.085Z,17.80
2022-09-09T20:45:05.122Z,18.00
2022-09-09T20:50:08.024Z,17.70
2022-09-09T20:55:10.444Z,17.70
2022-09-09T21:00:13.239Z,17.60
2022-09-09T21:05:17.249Z,17.60
2022-09-09T21:10:22.028Z,17.50
2022-09-09T21:15:24.511Z,17.60
2022-09-09T21:20:26.987Z,17.70
2022-09-09T21:25:29.414Z,17.70
2022-09-09T21:30:39.291Z,17.90
2022-09-09T21:35:43.441Z,18.00
2022-09-09T21:40:46.125Z,17.90
2022-09-09T21:45:49.723Z,17.90
2022-09-09T21:50:53.018Z,17.70
2022-09-09T21:56:06.832Z,17.60
2022-09-09T22:01:15.580Z,17.60
2022-09-09T22:06:19.612Z,17.70
2022-09-09T22:11:23.375Z,17.90
2022-09-09T22:16:25.864Z,18.00
2022-09-09T22:21:31.207Z,18.10
2022-09-09T22:26:36.562Z,18.10
2022-09-09T22:31:39.042Z,18.00
2022-09-09T22:36:42.150Z,17.90
2022-09-09T22:41:44.967Z,18.00
2022-09-09T22:46:47.876Z,17.90
2022-09-09T22:51:50.474Z,18.00
2022-09-09T22:56:52.848Z,18.00
2022-09-09T23:01:56.878Z,17.90
2022-09-09T23:07:00.097Z,17.70
2022-09-09T23:12:04.509Z,17.70
2022-09-09T23:17:08.849Z,17.50
2022-09-09T23:22:11.571Z,16.60
2022-09-09T23:27:13.917Z,16.60
2022-09-09T23:32:17.655Z,16.50
2022-09-09T23:37:20.256Z,16.70
2022-09-09T23:42:23.717Z,16.70
2022-09-09T23:47:26.129Z,16.60
2022-09-09T23:52:28.522Z,16.50
2022-09-09T23:57:30.961Z,16.50
